Terminal Aerodrome Forecast
Issued by NWS

Home | Current Version | Previous Version | Text Only | Print | Product List | Glossary On
Versions: 1 2 3 4 5 6 7 8 9 10 11 12 13 14
110
FTUS45 KABQ 191735
TAFLVS
TAF
KLVS 191735Z 1918/2018 17018G28KT P6SM SCT250
     FM192000 17022G32KT P6SM SCT130
     FM200000 17025G35KT P6SM BKN080
     FM200400 18025G35KT P6SM VCSH BKN050
     FM200900 19027G37KT 3SM -SHRASN BR OVC008=

USA.gov is the U.S. government's official web portal to all federal, state and local government web resources and services.